Time;durP1;ratioP1;P1;durP2;ratioP2;P2;SDS_P1;SDS_P2;PMS_P1;PMS_P2;Temp;Humidity;BMP_temperature;BMP_pressure;BME280_temperature;BME280_humidity;BME280_pressure;Samples;Min_cycle;Max_cycle;Signal;HPM_P1;HPM_P2
2023/01/19 00:02:23;;;;;;;;;;;2.20;99.90;;;;;;4982873;28;20020;-91
2023/01/19 00:05:15;;;;;;;;;;;2.40;99.90;;;;;;4998155;28;19949;-91
2023/01/19 00:07:46;;;;;;;;;;;0.30;99.90;;;;;;4996957;28;20425;-91
2023/01/19 00:10:14;;;;;;;;;;;2.00;99.90;;;;;;4980187;28;19925;-91
2023/01/19 00:12:50;;;;;;;;;;;1.70;99.90;;;;;;4996824;28;19980;-91
2023/01/19 00:15:22;;;;;;;;;;;2.50;99.90;;;;;;4996168;28;19933;-91
2023/01/19 00:21:23;;;;;;;;;;;1.60;99.90;;;;;;4996389;28;19991;-91
2023/01/19 00:24:13;;;;;;;;;;;;;;;;;;;;;
2023/01/19 00:27:06;;;;;;;;;;;2.00;99.90;;;;;;4997222;28;19972;-89
2023/01/19 00:32:53;;;;;;;;;;;2.10;99.90;;;;;;4996245;28;19926;-91
2023/01/19 00:35:45;;;;;;;;;;;;;;;;;;;;;
2023/01/19 00:38:37;;;;;;;;;;;2.40;99.90;;;;;;5008038;28;20020;-91
2023/01/19 00:44:43;;;;;;;;;;;2.00;99.90;;;;;;4996072;28;19926;-91
2023/01/19 00:53:26;;;;;;;;;;;;;;;;;;;;;
2023/01/19 00:56:09;;;;;;;;;;;0.80;99.90;;;;;;4998103;28;19925;-92
2023/01/19 01:01:59;;;;;;;;;;;0.90;99.90;;;;;;4989807;28;19925;-92
2023/01/19 01:04:53;;;;;;;;;;;2.40;99.90;;;;;;4999677;28;19930;-91
2023/01/19 01:07:54;;;;;;;;;;;;;;;;;;;;;
2023/01/19 01:10:27;;;;;;;;;;;2.30;99.90;;;;;;4998659;28;19926;-90
2023/01/19 01:13:40;;;;;;;;;;;;;;;;;;;;;
2023/01/19 01:16:43;;;;;;;;;;;;;;;;;;;;;
2023/01/19 01:19:29;;;;;;;;;;;;;;;;;;;;;
2023/01/19 01:25:46;;;;;;;;;;;;;;;;;;;;;
2023/01/19 01:28:49;;;;;;;;;;;2.20;99.90;;;;;;4998194;28;19926;-91
2023/01/19 01:35:08;;;;;;;;;;;;;;;;;;;;;
2023/01/19 01:37:58;;;;;;;;;;;1.70;99.90;;;;;;4996471;28;19930;-92
2023/01/19 01:47:09;;;;;;;;;;;3.90;99.90;;;;;;4985925;28;19929;-91
2023/01/19 01:50:34;;;;;;;;;;;;;;;;;;;;;
2023/01/19 01:54:05;;;;;;;;;;;;;;;;;;;;;
2023/01/19 02:00:03;;;;;;;;;;;;;;;;;;;;;
2023/01/19 02:06:08;;;;;;;;;;;;;;;;;;;;;
2023/01/19 02:15:48;;;;;;;;;;;2.50;99.90;;;;;;4995424;28;19930;-91
2023/01/19 02:18:56;;;;;;;;;;;1.20;99.90;;;;;;4986454;28;19925;-92
2023/01/19 02:21:42;;;;;;;;;;;2.20;99.90;;;;;;5006056;28;19930;-92
2023/01/19 02:27:37;;;;;;;;;;;2.30;99.90;;;;;;4957213;28;20266;-93
2023/01/19 02:30:28;;;;;;;;;;;2.30;99.90;;;;;;4994291;28;19929;-92
2023/01/19 02:43:25;;;;;;;;;;;2.10;99.90;;;;;;4992959;28;19969;-93
2023/01/19 03:20:27;;;;;;;;;;;;;;;;;;;;;
2023/01/19 03:26:58;;;;;;;;;;;;;;;;;;;;;
2023/01/19 03:46:50;;;;;;;;;;;;;;;;;;;;;
2023/01/19 03:54:01;;;;;;;;;;;;;;;;;;;;;
2023/01/19 03:59:46;;;;;;;;;;;;;;;;;;;;;
2023/01/19 04:44:17;;;;;;;;;;;;;;;;;;;;;
2023/01/19 05:14:05;;;;;;;;;;;;;;;;;;;;;
2023/01/19 05:57:11;;;;;;;;;;;;;;;;;;;;;
2023/01/19 06:14:09;;;;;;;;;;;1.00;99.90;;;;;;4879459;29;20384;-91
2023/01/19 06:23:27;;;;;;;;;;;;;;;;;;;;;
2023/01/19 06:29:45;;;;;;;;;;;1.50;99.90;;;;;;4932441;29;19985;-92
2023/01/19 06:42:57;;;;;;;;;;;1.60;99.90;;;;;;4954589;29;19957;-92
2023/01/19 06:46:02;;;;;;;;;;;2.40;99.90;;;;;;4923054;29;19926;-91
2023/01/19 06:52:07;;;;;;;;;;;2.10;99.90;;;;;;4915381;29;20343;-91
2023/01/19 06:55:25;;;;;;;;;;;;;;;;;;;;;
2023/01/19 07:01:38;;;;;;;;;;;0.90;99.90;;;;;;4919146;29;19926;-90
2023/01/19 07:04:34;;;;;;;;;;;1.70;99.90;;;;;;4922722;29;19988;-91
2023/01/19 07:07:10;;;;;;;;;;;0.50;99.90;;;;;;4937711;29;20018;-90
2023/01/19 07:16:20;;;;;;;;;;;1.80;99.90;;;;;;4992448;28;19925;-90
2023/01/19 07:19:14;;;;;;;;;;;;;;;;;;;;;
2023/01/19 07:25:39;;;;;;;;;;;0.60;99.90;;;;;;4987909;28;19926;-88
2023/01/19 07:28:13;;;;;;;;;;;;;;;;;;;;;
2023/01/19 07:31:05;;;;;;;;;;;2.50;99.90;;;;;;4992955;28;20255;-91
2023/01/19 07:33:38;;;;;;;;;;;2.10;99.90;;;;;;4989912;28;20028;-89
2023/01/19 07:36:40;;;;;;;;;;;;;;;;;;;;;
2023/01/19 07:39:35;;;;;;;;;;;1.10;99.90;;;;;;4994371;28;19929;-92
2023/01/19 07:45:42;;;;;;;;;;;;;;;;;;;;;
2023/01/19 07:54:59;;;;;;;;;;;2.40;99.90;;;;;;4995942;28;19961;-91
2023/01/19 08:00:43;;;;;;;;;;;1.20;99.90;;;;;;5001615;28;20365;-91
2023/01/19 08:03:11;;;;;;;;;;;1.90;99.90;;;;;;4996369;28;20000;-90
2023/01/19 08:05:55;;;;;;;;;;;2.70;99.90;;;;;;4996208;28;19926;-90
2023/01/19 08:08:41;;;;;;;;;;;;;;;;;;;;;
2023/01/19 08:11:14;;;;;;;;;;;2.60;99.90;;;;;;4995646;28;19930;-91
2023/01/19 08:13:45;;;;;;;;;;;2.70;99.90;;;;;;4980653;28;19976;-87
2023/01/19 08:16:34;;;;;;;;;;;3.00;99.90;;;;;;4979751;28;19933;-91
2023/01/19 08:19:05;;;;;;;;;;;1.40;99.90;;;;;;4996165;28;19926;-92
2023/01/19 08:22:12;;;;;;;;;;;1.40;99.90;;;;;;4995810;28;19925;-91
2023/01/19 08:24:50;;;;;;;;;;;;;;;;;;;;;
2023/01/19 08:31:02;;;;;;;;;;;2.80;99.90;;;;;;4980569;28;19925;-92
2023/01/19 08:37:02;;;;;;;;;;;2.90;99.90;;;;;;4994995;28;19926;-91
2023/01/19 08:42:34;;;;;;;;;;;3.00;99.90;;;;;;4967005;28;19926;-90
2023/01/19 08:45:19;;;;;;;;;;;3.00;99.90;;;;;;4996700;28;19948;-91
2023/01/19 08:47:54;;;;;;;;;;;1.60;99.90;;;;;;4996123;28;20012;-91
2023/01/19 08:51:20;;;;;;;;;;;;;;;;;;;;;
2023/01/19 08:56:52;;;;;;;;;;;2.60;99.90;;;;;;5011909;28;19914;-92
2023/01/19 08:59:36;;;;;;;;;;;3.00;99.90;;;;;;5016163;28;19917;-91
2023/01/19 09:03:03;;;;;;;;;;;;;;;;;;;;;
2023/01/19 09:05:37;;;;;;;;;;;;;;;;;;;;;
2023/01/19 09:08:42;;;;;;;;;;;;;;;;;;;;;
2023/01/19 09:11:21;;;;;;;;;;;3.00;99.90;;;;;;5029315;28;19914;-95
2023/01/19 09:13:49;;;;;;;;;;;1.90;99.90;;;;;;4988209;28;20008;-91
2023/01/19 09:16:34;;;;;;;;;;;2.90;99.90;;;;;;5014335;28;19925;-90
2023/01/19 09:19:12;;;;;;;;;;;;;;;;;;;;;
2023/01/19 09:22:07;;;;;;;;;;;2.60;99.90;;;;;;4998621;28;19925;-91
2023/01/19 09:24:48;;;;;;;;;;;;;;;;;;;;;
2023/01/19 09:27:31;;;;;;;;;;;1.60;99.90;;;;;;4998483;28;19925;-90
2023/01/19 09:40:19;;;;;;;;;;;;;;;;;;;;;
2023/01/19 09:46:19;;;;;;;;;;;2.50;99.90;;;;;;5012026;28;19929;-92
2023/01/19 09:49:05;;;;;;;;;;;;;;;;;;;;;
2023/01/19 09:51:54;;;;;;;;;;;2.80;99.90;;;;;;4998914;28;20207;-93
2023/01/19 09:54:35;;;;;;;;;;;2.60;99.90;;;;;;4981749;28;19926;-94
2023/01/19 09:57:25;;;;;;;;;;;2.80;99.90;;;;;;4998550;28;20346;-92
2023/01/19 10:00:04;;;;;;;;;;;1.10;99.90;;;;;;4997377;28;20388;-92
2023/01/19 10:03:04;;;;;;;;;;;3.10;99.90;;;;;;4997086;28;20029;-91
2023/01/19 10:05:56;;;;;;;;;;;3.20;99.90;;;;;;4987749;28;20286;-90
2023/01/19 10:08:39;;;;;;;;;;;4.60;99.90;;;;;;4996278;28;20377;-90
2023/01/19 10:11:27;;;;;;;;;;;;;;;;;;;;;
2023/01/19 10:13:55;;;;;;;;;;;3.20;99.90;;;;;;4996519;28;19926;-90
2023/01/19 10:16:52;;;;;;;;;;;3.90;99.90;;;;;;4997512;28;19925;-91
2023/01/19 10:19:27;;;;;;;;;;;4.20;99.90;;;;;;4997573;28;19929;-91
2023/01/19 10:22:07;;;;;;;;;;;3.80;99.90;;;;;;4997858;28;20234;-92
2023/01/19 10:25:04;;;;;;;;;;;3.80;99.90;;;;;;4997580;28;20054;-90
2023/01/19 10:27:45;;;;;;;;;;;2.90;99.90;;;;;;4993366;28;20010;-92
2023/01/19 10:36:45;;;;;;;;;;;;;;;;;;;;;
2023/01/19 10:39:24;;;;;;;;;;;3.70;99.90;;;;;;4997936;28;19926;-92
2023/01/19 10:42:00;;;;;;;;;;;3.60;99.90;;;;;;4998284;28;19980;-92
2023/01/19 10:44:50;;;;;;;;;;;4.50;99.90;;;;;;4998294;28;22166;-93
2023/01/19 10:47:39;;;;;;;;;;;3.80;99.90;;;;;;5013738;28;20008;-93
2023/01/19 10:50:23;;;;;;;;;;;4.50;99.90;;;;;;4997174;28;19930;-93
2023/01/19 10:52:59;;;;;;;;;;;4.10;99.90;;;;;;4982385;28;19931;-92
2023/01/19 10:56:08;;;;;;;;;;;;;;;;;;;;;
2023/01/19 10:59:13;;;;;;;;;;;;;;;;;;;;;
2023/01/19 11:02:26;;;;;;;;;;;;;;;;;;;;;
2023/01/19 11:05:03;;;;;;;;;;;4.20;99.90;;;;;;4993725;28;19980;-91
2023/01/19 11:08:03;;;;;;;;;;;4.20;99.90;;;;;;4993719;28;19926;-92
2023/01/19 11:10:40;;;;;;;;;;;3.20;99.90;;;;;;5007532;28;19926;-91
2023/01/19 11:13:11;;;;;;;;;;;6.40;99.90;;;;;;4992837;28;19930;-92
2023/01/19 11:15:51;;;;;;;;;;;4.40;99.90;;;;;;4993334;28;20374;-91
2023/01/19 11:18:54;;;;;;;;;;;;;;;;;;;;;
2023/01/19 11:21:30;;;;;;;;;;;3.20;99.90;;;;;;5006982;28;19926;-91
2023/01/19 11:24:24;;;;;;;;;;;4.70;99.90;;;;;;4997823;28;19929;-89
2023/01/19 11:27:01;;;;;;;;;;;5.00;99.90;;;;;;4997538;28;19926;-93
2023/01/19 11:29:30;;;;;;;;;;;4.90;99.90;;;;;;4997152;28;19926;-90
2023/01/19 11:32:18;;;;;;;;;;;4.60;99.90;;;;;;4981459;28;20346;-92
2023/01/19 11:35:11;;;;;;;;;;;5.00;99.90;;;;;;4997200;28;19973;-91
2023/01/19 11:41:24;;;;;;;;;;;4.70;99.90;;;;;;4991932;28;19965;-93
2023/01/19 11:44:26;;;;;;;;;;;5.10;99.90;;;;;;4998093;28;19937;-90
2023/01/19 11:50:21;;;;;;;;;;;5.10;99.90;;;;;;4997206;28;19926;-92
2023/01/19 11:53:07;;;;;;;;;;;5.10;99.90;;;;;;4987953;28;19926;-91
2023/01/19 11:55:45;;;;;;;;;;;4.10;99.90;;;;;;4994545;28;20325;-90
2023/01/19 11:58:47;;;;;;;;;;;;;;;;;;;;;
2023/01/19 12:07:36;;;;;;;;;;;5.30;99.90;;;;;;4965050;28;20431;-90
2023/01/19 12:10:25;;;;;;;;;;;5.40;99.90;;;;;;4999400;28;19963;-93
2023/01/19 12:13:09;;;;;;;;;;;4.30;99.90;;;;;;4995637;28;19971;-91
2023/01/19 12:16:02;;;;;;;;;;;4.70;99.90;;;;;;5015425;28;20435;-92
2023/01/19 12:21:46;;;;;;;;;;;6.40;99.90;;;;;;4984398;28;19976;-91
2023/01/19 12:24:45;;;;;;;;;;;5.70;99.90;;;;;;4999794;28;20369;-90
2023/01/19 12:27:25;;;;;;;;;;;4.80;99.90;;;;;;4999049;28;19926;-91
2023/01/19 12:33:15;;;;;;;;;;;6.50;99.90;;;;;;4989974;28;20289;-91
2023/01/19 12:36:15;;;;;;;;;;;5.00;99.90;;;;;;4998169;28;19925;-88
2023/01/19 12:38:54;;;;;;;;;;;5.60;99.90;;;;;;4987155;28;19949;-90
2023/01/19 12:47:23;;;;;;;;;;;;;;;;;;;;;
2023/01/19 12:49:53;;;;;;;;;;;5.10;99.90;;;;;;4998690;28;19933;-90
2023/01/19 12:52:48;;;;;;;;;;;4.40;99.90;;;;;;4999068;28;20020;-90
2023/01/19 12:55:23;;;;;;;;;;;;;;;;;;;;;
2023/01/19 12:57:56;;;;;;;;;;;4.50;99.90;;;;;;4998713;28;19932;-91
2023/01/19 13:00:45;;;;;;;;;;;4.40;99.90;;;;;;4998496;28;20287;-90
2023/01/19 13:03:28;;;;;;;;;;;5.70;99.90;;;;;;4995064;28;19926;-90
2023/01/19 13:06:18;;;;;;;;;;;5.30;99.90;;;;;;4996152;28;19925;-91
2023/01/19 13:09:07;;;;;;;;;;;;;;;;;;;;;
2023/01/19 13:12:13;;;;;;;;;;;4.20;99.90;;;;;;5005461;28;19926;-92
2023/01/19 13:14:54;;;;;;;;;;;;;;;;;;;;;
2023/01/19 13:17:38;;;;;;;;;;;4.80;99.90;;;;;;5019109;28;19914;-90
2023/01/19 13:20:22;;;;;;;;;;;4.90;99.90;;;;;;5016812;28;19910;-89
2023/01/19 13:23:35;;;;;;;;;;;4.90;99.90;;;;;;5018280;28;19936;-88
2023/01/19 13:26:28;;;;;;;;;;;4.10;99.90;;;;;;5018490;28;19935;-90
2023/01/19 13:29:21;;;;;;;;;;;4.10;99.90;;;;;;5018970;28;19910;-90
2023/01/19 13:32:01;;;;;;;;;;;5.60;99.90;;;;;;5017849;28;19914;-90
2023/01/19 13:37:39;;;;;;;;;;;5.40;99.90;;;;;;4983838;28;20285;-90
2023/01/19 13:40:12;;;;;;;;;;;5.30;99.90;;;;;;4994545;28;19933;-91
2023/01/19 13:42:47;;;;;;;;;;;5.70;99.90;;;;;;4994072;28;19926;-88
2023/01/19 13:45:40;;;;;;;;;;;4.30;99.90;;;;;;4994706;28;19933;-91
2023/01/19 13:51:37;;;;;;;;;;;5.30;99.90;;;;;;4961222;28;19926;-95
2023/01/19 13:54:24;;;;;;;;;;;5.00;99.90;;;;;;4995237;28;20394;-92
2023/01/19 13:57:02;;;;;;;;;;;4.00;99.90;;;;;;4995899;28;19972;-92
2023/01/19 13:59:40;;;;;;;;;;;6.30;99.90;;;;;;4997440;28;19925;-95
2023/01/19 14:02:11;;;;;;;;;;;6.10;99.90;;;;;;4996195;28;19930;-94
2023/01/19 14:04:56;;;;;;;;;;;;;;;;;;;;;
2023/01/19 14:08:04;;;;;;;;;;;;;;;;;;;;;
2023/01/19 14:10:58;;;;;;;;;;;4.40;99.90;;;;;;4996436;28;19980;-92
2023/01/19 14:13:36;;;;;;;;;;;;;;;;;;;;;
2023/01/19 14:16:06;;;;;;;;;;;4.30;99.90;;;;;;4997910;28;19926;-93
2023/01/19 14:21:48;;;;;;;;;;;4.30;99.90;;;;;;4985088;28;19932;-93
2023/01/19 14:24:33;;;;;;;;;;;;;;;;;;;;;
2023/01/19 14:27:32;;;;;;;;;;;4.20;99.90;;;;;;4995296;28;20388;-92
2023/01/19 14:30:19;;;;;;;;;;;2.70;99.90;;;;;;4978488;28;19926;-93
2023/01/19 14:32:52;;;;;;;;;;;3.90;99.90;;;;;;4994937;28;19930;-92
2023/01/19 14:35:28;;;;;;;;;;;3.80;99.90;;;;;;4977833;28;19925;-91
2023/01/19 14:38:04;;;;;;;;;;;4.10;99.90;;;;;;4994572;28;19929;-91
2023/01/19 14:40:59;;;;;;;;;;;3.90;99.90;;;;;;4994365;28;19932;-92
2023/01/19 14:43:36;;;;;;;;;;;4.00;99.90;;;;;;4994397;28;19976;-92
2023/01/19 14:46:04;;;;;;;;;;;3.60;99.90;;;;;;4994152;28;19933;-89
2023/01/19 14:48:32;;;;;;;;;;;3.70;99.90;;;;;;4993958;28;19977;-93
2023/01/19 14:51:23;;;;;;;;;;;2.10;99.90;;;;;;5005248;28;19925;-94
2023/01/19 14:54:09;;;;;;;;;;;4.20;99.90;;;;;;5008800;28;19926;-92
2023/01/19 14:56:52;;;;;;;;;;;3.30;99.90;;;;;;5003396;28;19930;-94
2023/01/19 14:59:47;;;;;;;;;;;3.70;99.90;;;;;;4999105;28;20366;-95
2023/01/19 15:02:18;;;;;;;;;;;4.40;99.90;;;;;;4998301;28;20322;-91
2023/01/19 15:04:47;;;;;;;;;;;2.30;99.90;;;;;;4997696;28;19926;-91
2023/01/19 15:07:19;;;;;;;;;;;2.60;99.90;;;;;;4998436;28;19971;-90
2023/01/19 15:09:48;;;;;;;;;;;2.40;99.90;;;;;;4997917;28;19934;-91
2023/01/19 15:12:22;;;;;;;;;;;3.60;99.90;;;;;;4998315;28;20064;-92
2023/01/19 15:14:53;;;;;;;;;;;4.50;99.90;;;;;;4998198;28;20005;-91
2023/01/19 15:17:38;;;;;;;;;;;;;;;;;;;;;
2023/01/19 15:20:17;;;;;;;;;;;2.20;99.90;;;;;;4997470;28;19936;-92
2023/01/19 15:22:49;;;;;;;;;;;2.60;99.90;;;;;;4998475;28;19993;-91
2023/01/19 15:25:26;;;;;;;;;;;2.60;99.90;;;;;;4997756;28;19960;-91
2023/01/19 15:28:21;;;;;;;;;;;;;;;;;;;;;
2023/01/19 15:31:00;;;;;;;;;;;2.40;99.90;;;;;;4997437;28;19926;-91
2023/01/19 15:33:31;;;;;;;;;;;2.40;99.90;;;;;;4981937;28;19925;-91
2023/01/19 15:36:20;;;;;;;;;;;2.50;99.90;;;;;;4998277;28;19973;-92
2023/01/19 15:38:58;;;;;;;;;;;2.30;99.90;;;;;;4994636;28;19973;-91
2023/01/19 15:47:43;;;;;;;;;;;3.10;99.90;;;;;;4997907;28;19921;-92
2023/01/19 15:50:12;;;;;;;;;;;2.30;99.90;;;;;;4997679;28;20018;-93
2023/01/19 15:52:38;;;;;;;;;;;1.80;99.90;;;;;;4997636;28;19925;-92
2023/01/19 15:58:12;;;;;;;;;;;;;;;;;;;;;
2023/01/19 16:00:58;;;;;;;;;;;1.70;99.90;;;;;;4997489;28;19925;-92
2023/01/19 16:03:44;;;;;;;;;;;1.70;99.90;;;;;;4996521;28;19938;-92
2023/01/19 16:06:18;;;;;;;;;;;0.60;99.90;;;;;;4997461;28;19926;-92
2023/01/19 16:08:46;;;;;;;;;;;2.80;99.90;;;;;;4996602;28;19926;-91
2023/01/19 16:11:15;;;;;;;;;;;1.20;99.90;;;;;;4997074;28;19968;-92
2023/01/19 16:13:50;;;;;;;;;;;1.00;99.90;;;;;;4996485;28;19926;-91
2023/01/19 16:16:29;;;;;;;;;;;0.30;99.90;;;;;;4996497;28;19926;-91
2023/01/19 16:18:55;;;;;;;;;;;2.60;99.90;;;;;;4996564;28;19929;-90
2023/01/19 16:21:21;;;;;;;;;;;1.10;99.90;;;;;;4996325;28;19932;-90
2023/01/19 16:23:50;;;;;;;;;;;2.10;99.90;;;;;;4996294;28;19991;-91
2023/01/19 16:26:26;;;;;;;;;;;1.10;99.90;;;;;;4996249;28;19961;-90
2023/01/19 16:29:15;;;;;;;;;;;1.60;99.90;;;;;;4996392;28;19926;-91
2023/01/19 16:32:02;;;;;;;;;;;2.00;99.90;;;;;;4995837;28;19992;-91
2023/01/19 16:34:55;;;;;;;;;;;-0.50;99.90;;;;;;4996017;28;19953;-90
2023/01/19 16:37:51;;;;;;;;;;;;;;;;;;;;;
2023/01/19 16:40:27;;;;;;;;;;;1.20;99.90;;;;;;4996766;28;20378;-90
2023/01/19 16:43:15;;;;;;;;;;;1.10;99.90;;;;;;4996256;28;19926;-90
2023/01/19 16:46:29;;;;;;;;;;;;;;;;;;;;;
2023/01/19 16:49:10;;;;;;;;;;;1.20;99.90;;;;;;4995800;28;19925;-91
2023/01/19 16:52:06;;;;;;;;;;;4.40;99.90;;;;;;4979634;28;20370;-90
2023/01/19 16:55:10;;;;;;;;;;;;;;;;;;;;;
2023/01/19 16:57:59;;;;;;;;;;;;;;;;;;;;;
2023/01/19 17:03:41;;;;;;;;;;;;;;;;;;;;;
2023/01/19 17:06:42;;;;;;;;;;;0.70;99.90;;;;;;4996699;28;20282;-92
2023/01/19 17:09:21;;;;;;;;;;;;;;;;;;;;;
2023/01/19 17:22:02;;;;;;;;;;;-1.50;99.90;;;;;;4991594;28;19924;-92
2023/01/19 17:25:00;;;;;;;;;;;1.40;99.90;;;;;;4995073;28;19933;-91
2023/01/19 17:27:43;;;;;;;;;;;0.70;99.90;;;;;;4996257;28;20358;-92
2023/01/19 17:30:29;;;;;;;;;;;;;;;;;;;;;
2023/01/19 17:33:20;;;;;;;;;;;0.40;99.90;;;;;;5010797;28;19925;-90
2023/01/19 17:35:46;;;;;;;;;;;1.60;99.90;;;;;;5018908;28;19910;-90
2023/01/19 17:44:41;;;;;;;;;;;-0.10;99.90;;;;;;5013464;28;19941;-92
2023/01/19 17:59:59;;;;;;;;;;;-1.10;99.90;;;;;;4975491;28;19933;-92
2023/01/19 18:02:40;;;;;;;;;;;;;;;;;;;;;
2023/01/19 18:08:07;;;;;;;;;;;-1.60;99.90;;;;;;4991122;28;19940;-93
2023/01/19 18:11:05;;;;;;;;;;;0.20;99.90;;;;;;5010009;28;19929;-91
2023/01/19 18:14:00;;;;;;;;;;;;;;;;;;;;;
2023/01/19 18:33:49;;;;;;;;;;;0.10;99.90;;;;;;4931446;29;19977;-93
2023/01/19 18:36:34;;;;;;;;;;;;;;;;;;;;;
2023/01/19 18:45:30;;;;;;;;;;;-2.70;99.90;;;;;;4979438;28;19925;-92
2023/01/19 18:48:07;;;;;;;;;;;0.70;99.90;;;;;;4993779;28;20040;-92
2023/01/19 18:51:06;;;;;;;;;;;2.40;99.90;;;;;;4988305;28;19997;-91
2023/01/19 18:54:16;;;;;;;;;;;0.20;99.90;;;;;;4993523;28;19926;-92
2023/01/19 19:03:15;;;;;;;;;;;0.70;99.90;;;;;;4977938;28;20013;-93
2023/01/19 19:05:55;;;;;;;;;;;2.10;99.90;;;;;;4994103;28;19933;-92
2023/01/19 19:08:42;;;;;;;;;;;;;;;;;;;;;
2023/01/19 19:14:51;;;;;;;;;;;;;;;;;;;;;
2023/01/19 19:20:52;;;;;;;;;;;-0.10;99.90;;;;;;5001707;28;19926;-93
2023/01/19 19:23:35;;;;;;;;;;;;;;;;;;;;;
2023/01/19 19:26:20;;;;;;;;;;;;;;;;;;;;;
2023/01/19 19:29:10;;;;;;;;;;;;;;;;;;;;;
2023/01/19 19:34:58;;;;;;;;;;;0.40;99.90;;;;;;4993984;28;19936;-91
2023/01/19 19:37:28;;;;;;;;;;;-1.30;99.90;;;;;;4993259;28;20358;-91
2023/01/19 19:40:03;;;;;;;;;;;3.00;99.90;;;;;;4994655;28;19925;-91
2023/01/19 19:42:33;;;;;;;;;;;0.40;99.90;;;;;;4997442;28;19933;-92
2023/01/19 19:45:02;;;;;;;;;;;2.30;99.90;;;;;;4997093;28;19926;-91
2023/01/19 19:47:30;;;;;;;;;;;2.40;99.90;;;;;;4997653;28;19926;-91
2023/01/19 19:49:58;;;;;;;;;;;-3.10;99.90;;;;;;4997190;28;19934;-91
2023/01/19 19:52:28;;;;;;;;;;;2.70;99.90;;;;;;4996707;28;19926;-92
2023/01/19 19:55:11;;;;;;;;;;;-1.20;99.90;;;;;;4996655;28;19980;-90
2023/01/19 19:57:49;;;;;;;;;;;;;;;;;;;;;
2023/01/19 20:00:21;;;;;;;;;;;-0.90;99.90;;;;;;4996399;28;19949;-91
2023/01/19 20:03:05;;;;;;;;;;;;;;;;;;;;;
2023/01/19 20:05:44;;;;;;;;;;;-2.60;99.90;;;;;;4978998;28;19926;-92
2023/01/19 20:08:38;;;;;;;;;;;-0.90;99.90;;;;;;4977299;28;19927;-89
2023/01/19 20:11:25;;;;;;;;;;;-0.10;99.90;;;;;;4961012;28;19990;-94
2023/01/19 20:14:19;;;;;;;;;;;-0.40;99.90;;;;;;4964897;28;20034;-92
2023/01/19 20:17:21;;;;;;;;;;;0.30;99.90;;;;;;4975765;28;19980;-93
2023/01/19 20:19:57;;;;;;;;;;;;;;;;;;;;;
2023/01/19 20:22:52;;;;;;;;;;;-0.40;99.90;;;;;;4977379;28;19926;-91
2023/01/19 20:25:20;;;;;;;;;;;-0.20;99.90;;;;;;4977376;28;19926;-92
2023/01/19 20:28:20;;;;;;;;;;;-0.80;99.90;;;;;;4976785;28;19972;-89
2023/01/19 20:31:09;;;;;;;;;;;-2.70;99.90;;;;;;4964415;28;19950;-92
2023/01/19 20:33:35;;;;;;;;;;;3.00;99.90;;;;;;4976211;28;20001;-90
2023/01/19 20:36:03;;;;;;;;;;;-0.40;99.90;;;;;;4976546;28;19930;-91
2023/01/19 20:38:29;;;;;;;;;;;-0.10;99.90;;;;;;4975564;28;19926;-90
2023/01/19 20:41:14;;;;;;;;;;;0.00;99.90;;;;;;4975729;28;20016;-89
2023/01/19 20:43:48;;;;;;;;;;;0.20;99.90;;;;;;4960937;28;19932;-91
2023/01/19 20:46:21;;;;;;;;;;;-2.10;99.90;;;;;;4976213;28;20431;-90
2023/01/19 20:48:51;;;;;;;;;;;-0.80;99.90;;;;;;4976974;28;20307;-91
2023/01/19 20:51:36;;;;;;;;;;;-0.50;99.90;;;;;;4975030;28;19981;-92
2023/01/19 20:54:04;;;;;;;;;;;-0.10;99.90;;;;;;4976263;28;20377;-91
2023/01/19 20:56:40;;;;;;;;;;;0.20;99.90;;;;;;4976150;28;19981;-90
2023/01/19 20:59:35;;;;;;;;;;;-0.50;99.90;;;;;;4991395;28;20274;-89
2023/01/19 21:02:01;;;;;;;;;;;-0.80;99.90;;;;;;4975968;28;19933;-89
2023/01/19 21:04:42;;;;;;;;;;;-0.60;99.90;;;;;;4970322;28;19926;-88
2023/01/19 21:07:16;;;;;;;;;;;0.40;99.90;;;;;;4996767;28;19972;-89
2023/01/19 21:09:43;;;;;;;;;;;-2.50;99.90;;;;;;4995022;28;20016;-89
2023/01/19 21:12:10;;;;;;;;;;;-0.80;99.90;;;;;;4994620;28;19933;-90
2023/01/19 21:14:42;;;;;;;;;;;2.00;99.90;;;;;;4994426;28;19926;-89
2023/01/19 21:17:11;;;;;;;;;;;-1.60;99.90;;;;;;4978702;28;19925;-89
2023/01/19 21:19:42;;;;;;;;;;;-3.90;99.90;;;;;;4995071;28;19926;-89
2023/01/19 21:22:11;;;;;;;;;;;-1.80;99.90;;;;;;4995016;28;19926;-89
2023/01/19 21:24:42;;;;;;;;;;;0.80;99.90;;;;;;4994798;28;19949;-90
2023/01/19 21:27:08;;;;;;;;;;;-0.50;99.90;;;;;;4994575;28;19969;-90
2023/01/19 21:29:40;;;;;;;;;;;0.00;99.90;;;;;;4995449;28;20368;-90
2023/01/19 21:32:20;;;;;;;;;;;-0.60;99.90;;;;;;4994786;28;20394;-90
2023/01/19 21:34:48;;;;;;;;;;;-0.90;99.90;;;;;;4994746;28;19926;-91
2023/01/19 21:37:14;;;;;;;;;;;-1.20;99.90;;;;;;4995931;28;19990;-89
2023/01/19 21:39:52;;;;;;;;;;;-0.40;99.90;;;;;;4989539;28;19925;-90
2023/01/19 21:42:23;;;;;;;;;;;-1.20;99.90;;;;;;5017003;28;19968;-90
2023/01/19 21:44:56;;;;;;;;;;;-0.10;99.90;;;;;;5018383;28;19933;-90
2023/01/19 21:47:50;;;;;;;;;;;-0.80;99.90;;;;;;5018776;28;19917;-92
2023/01/19 21:50:18;;;;;;;;;;;-1.30;99.90;;;;;;5018305;28;19926;-90
2023/01/19 21:52:46;;;;;;;;;;;-1.30;99.90;;;;;;5017642;28;19993;-90
2023/01/19 21:55:17;;;;;;;;;;;-1.30;99.90;;;;;;5018432;28;19910;-91
2023/01/19 21:57:50;;;;;;;;;;;1.50;99.90;;;;;;5002663;28;19910;-90
2023/01/19 22:00:28;;;;;;;;;;;;;;;;;;;;;
2023/01/19 22:02:56;;;;;;;;;;;2.20;99.90;;;;;;4995056;28;19973;-88
2023/01/19 22:05:39;;;;;;;;;;;-0.80;99.90;;;;;;5007726;28;19933;-91
2023/01/19 22:08:08;;;;;;;;;;;-1.30;99.90;;;;;;5010481;28;20091;-92
2023/01/19 22:11:02;;;;;;;;;;;-1.30;99.90;;;;;;5000614;28;19926;-91
2023/01/19 22:13:37;;;;;;;;;;;1.30;99.90;;;;;;5000083;28;19976;-91
2023/01/19 22:16:17;;;;;;;;;;;-1.40;99.90;;;;;;4994768;28;19937;-90
2023/01/19 22:19:11;;;;;;;;;;;;;;;;;;;;;
2023/01/19 22:21:46;;;;;;;;;;;-0.70;99.90;;;;;;4994141;28;20020;-91
2023/01/19 22:24:36;;;;;;;;;;;-1.60;99.90;;;;;;4993511;28;20357;-92
2023/01/19 22:27:09;;;;;;;;;;;-1.30;99.90;;;;;;4994224;28;19941;-91
2023/01/19 22:29:54;;;;;;;;;;;-2.50;99.90;;;;;;4994250;28;19929;-91
2023/01/19 22:32:20;;;;;;;;;;;-1.40;99.90;;;;;;4993454;28;19976;-90
2023/01/19 22:34:46;;;;;;;;;;;2.10;99.90;;;;;;4994104;28;19930;-90
2023/01/19 22:37:22;;;;;;;;;;;-2.40;99.90;;;;;;4993699;28;19926;-90
2023/01/19 22:40:08;;;;;;;;;;;-1.40;99.90;;;;;;4977717;28;19977;-91
2023/01/19 22:42:43;;;;;;;;;;;-1.30;99.90;;;;;;4976678;28;20026;-90
2023/01/19 22:45:09;;;;;;;;;;;-0.30;99.90;;;;;;4994396;28;19926;-91
2023/01/19 22:47:39;;;;;;;;;;;-1.10;99.90;;;;;;4977770;28;20330;-92
2023/01/19 22:50:13;;;;;;;;;;;-1.40;99.90;;;;;;4977739;28;19926;-90
2023/01/19 22:52:44;;;;;;;;;;;-1.10;99.90;;;;;;4993585;28;19932;-91
2023/01/19 22:55:33;;;;;;;;;;;2.30;99.90;;;;;;4993726;28;20024;-94
2023/01/19 22:58:13;;;;;;;;;;;2.60;99.90;;;;;;4990798;28;19925;-93
2023/01/19 23:00:50;;;;;;;;;;;-1.40;99.90;;;;;;4994576;28;19926;-92
2023/01/19 23:03:18;;;;;;;;;;;-1.40;99.90;;;;;;4994329;28;19926;-92
2023/01/19 23:05:50;;;;;;;;;;;-1.90;99.90;;;;;;4992769;28;19976;-92
2023/01/19 23:08:18;;;;;;;;;;;-3.20;99.90;;;;;;4992842;28;19948;-92
2023/01/19 23:10:51;;;;;;;;;;;-1.50;99.90;;;;;;4992781;28;20357;-93
2023/01/19 23:13:40;;;;;;;;;;;-1.50;99.90;;;;;;4977657;28;20274;-92
2023/01/19 23:16:17;;;;;;;;;;;-0.70;99.90;;;;;;4997181;28;20012;-93
2023/01/19 23:18:56;;;;;;;;;;;-1.50;99.90;;;;;;4994018;28;19933;-92
2023/01/19 23:21:36;;;;;;;;;;;;;;;;;;;;;
2023/01/19 23:24:10;;;;;;;;;;;-1.60;99.90;;;;;;4998927;28;19930;-92
2023/01/19 23:29:51;;;;;;;;;;;-1.70;99.90;;;;;;4956578;28;19930;-92
2023/01/19 23:32:28;;;;;;;;;;;-1.60;99.90;;;;;;4997055;28;19926;-93
2023/01/19 23:34:54;;;;;;;;;;;-1.10;99.90;;;;;;4995843;28;20024;-91
2023/01/19 23:37:30;;;;;;;;;;;-1.70;99.90;;;;;;4995831;28;19934;-93
2023/01/19 23:40:16;;;;;;;;;;;2.40;99.90;;;;;;4996536;28;20393;-93
2023/01/19 23:43:16;;;;;;;;;;;-0.30;99.90;;;;;;4981522;28;19930;-93
2023/01/19 23:46:16;;;;;;;;;;;-1.50;99.90;;;;;;4996064;28;19976;-95
2023/01/19 23:48:55;;;;;;;;;;;-1.40;99.90;;;;;;4996208;28;19926;-91
2023/01/19 23:51:34;;;;;;;;;;;-1.40;99.90;;;;;;4996771;28;19933;-92
2023/01/19 23:54:09;;;;;;;;;;;-0.20;99.90;;;;;;4996342;28;19988;-92
2023/01/19 23:56:53;;;;;;;;;;;-1.50;99.90;;;;;;4996821;28;19976;-92
2023/01/19 23:59:30;;;;;;;;;;;-4.20;99.90;;;;;;4995509;28;19926;-92
